Time;durP1;ratioP1;P1;durP2;ratioP2;P2;SDS_P1;SDS_P2;PMS_P1;PMS_P2;Temp;Humidity;BMP_temperature;BMP_pressure;BME280_temperature;BME280_humidity;BME280_pressure;Samples;Min_cycle;Max_cycle;Signal;HPM_P1;HPM_P2
2021/03/06 00:00:12;;;;;;;11.98;6.90;;;5.30;99.90;;;5.15;58.88;102484.47;4137894;28;20037;-73
2021/03/06 00:02:13;;;;;;;11.05;7.35;;;5.90;99.90;;;5.22;58.83;102490.25;4137532;28;20435;-73
2021/03/06 00:04:14;;;;;;;11.98;8.55;;;5.80;99.90;;;5.28;58.49;102490.78;4137968;28;20099;-73
2021/03/06 00:06:15;;;;;;;10.65;8.15;;;5.80;99.90;;;5.31;58.73;102485.38;4137781;28;20030;-73
2021/03/06 00:08:16;;;;;;;10.38;7.38;;;5.80;99.90;;;5.38;58.65;102491.97;4120566;28;20034;-73
2021/03/06 00:10:18;;;;;;;13.05;9.02;;;5.80;99.90;;;5.35;58.43;102486.03;4137641;28;20058;-73
2021/03/06 00:12:19;;;;;;;8.48;7.25;;;5.80;99.90;;;5.07;58.92;102484.03;4120466;28;20026;-73
2021/03/06 00:14:20;;;;;;;10.88;7.32;;;5.90;99.90;;;5.08;59.32;102477.84;4120221;28;20056;-73
2021/03/06 00:16:21;;;;;;;9.50;7.85;;;5.80;99.90;;;5.28;58.38;102484.69;4137561;28;20389;-73
2021/03/06 00:18:22;;;;;;;12.02;7.65;;;5.80;99.90;;;5.16;58.86;102483.56;4137834;28;20029;-73
2021/03/06 00:20:23;;;;;;;10.75;7.32;;;5.80;99.90;;;5.22;59.21;102496.31;4120372;28;20031;-73
2021/03/06 00:22:24;;;;;;;9.50;7.13;;;5.80;99.90;;;4.94;59.04;102470.72;4137598;28;20027;-73
2021/03/06 00:24:25;;;;;;;9.50;7.35;;;5.80;99.90;;;5.09;59.20;102474.31;4137591;28;20074;-73
2021/03/06 00:26:26;;;;;;;11.60;7.60;;;5.80;99.90;;;5.19;58.83;102485.16;4137693;28;20154;-73
2021/03/06 00:28:27;;;;;;;8.85;7.07;;;5.80;99.90;;;5.23;58.93;102492.75;4137710;28;20072;-73
2021/03/06 00:30:28;;;;;;;9.82;7.07;;;5.80;99.90;;;4.97;59.55;102491.50;4136177;28;20039;-73
2021/03/06 00:32:29;;;;;;;10.68;7.50;;;5.80;99.90;;;5.03;59.08;102470.25;4113866;28;20058;-73
2021/03/06 00:34:29;;;;;;;9.30;7.25;;;5.70;99.90;;;5.06;59.45;102489.31;4137346;28;20031;-73
2021/03/06 00:36:31;;;;;;;9.75;7.18;;;5.80;99.90;;;5.22;59.32;102478.00;4137192;28;20034;-73
2021/03/06 00:38:32;;;;;;;12.77;8.13;;;5.80;99.90;;;5.16;59.62;102480.94;4137334;28;20089;-73
2021/03/06 00:40:32;;;;;;;11.23;7.82;;;5.80;99.90;;;5.18;59.77;102476.47;4137008;28;20046;-73
2021/03/06 00:42:34;;;;;;;9.43;6.78;;;5.70;99.90;;;4.97;59.50;102464.50;4137447;28;20050;-73
2021/03/06 00:44:35;;;;;;;12.20;7.15;;;5.70;99.90;;;4.91;60.14;102462.19;4119993;28;20035;-73
2021/03/06 00:46:36;;;;;;;9.48;8.18;;;5.60;99.90;;;5.14;59.46;102479.34;4119945;28;20030;-73
2021/03/06 00:48:37;;;;;;;11.25;8.05;;;5.50;99.90;;;4.86;60.24;102459.81;4119862;28;20027;-73
2021/03/06 00:50:38;;;;;;;11.55;7.90;;;5.50;99.90;;;4.91;60.20;102478.72;4120087;28;20037;-73
2021/03/06 00:52:39;;;;;;;9.82;7.30;;;5.40;99.90;;;4.70;61.18;102455.41;4137391;28;20038;-73
2021/03/06 00:54:40;;;;;;;9.73;7.68;;;5.30;99.90;;;4.64;61.55;102460.94;4119590;28;20486;-73
2021/03/06 00:56:41;;;;;;;12.10;8.02;;;5.20;99.90;;;4.72;60.94;102466.66;4119639;28;20030;-73
2021/03/06 00:58:42;;;;;;;10.10;7.70;;;5.20;99.90;;;4.63;61.03;102467.13;4119900;28;20046;-73
2021/03/06 01:00:44;;;;;;;11.63;7.63;;;5.10;99.90;;;4.51;61.78;102465.09;4119751;28;20114;-73
2021/03/06 01:02:44;;;;;;;13.55;8.40;;;5.10;99.90;;;4.39;62.01;102471.78;4119632;28;20034;-73
2021/03/06 01:04:45;;;;;;;12.23;7.78;;;5.00;99.90;;;4.32;62.32;102455.53;4136902;28;20068;-73
2021/03/06 01:06:46;;;;;;;9.38;7.50;;;5.00;99.90;;;4.31;62.82;102471.28;4119812;28;20117;-73
2021/03/06 01:08:47;;;;;;;11.70;8.27;;;4.90;99.90;;;4.17;62.87;102464.13;4136914;28;20104;-73
2021/03/06 01:10:48;;;;;;;12.82;8.13;;;4.80;99.90;;;4.11;62.88;102456.56;4136731;28;20039;-73
2021/03/06 01:12:49;;;;;;;10.77;7.95;;;4.80;99.90;;;4.08;62.88;102461.94;4136815;28;20125;-73
2021/03/06 01:14:50;;;;;;;12.35;7.20;;;4.70;99.90;;;3.68;63.41;102456.84;4136186;28;20479;-73
2021/03/06 01:16:51;;;;;;;10.20;7.50;;;4.70;99.90;;;3.69;63.65;102451.59;4136853;28;20077;-73
2021/03/06 01:18:52;;;;;;;9.57;7.75;;;4.60;99.90;;;3.78;63.88;102477.25;4136777;28;20486;-73
2021/03/06 01:20:53;;;;;;;9.80;7.35;;;4.50;99.90;;;3.83;63.75;102458.75;4135435;28;20045;-73
2021/03/06 01:22:54;;;;;;;11.07;7.43;;;4.50;99.90;;;3.67;64.49;102476.91;4119596;28;20577;-73
2021/03/06 01:24:55;;;;;;;11.00;7.97;;;4.40;99.90;;;3.81;63.69;102471.91;4119322;28;20067;-73
2021/03/06 01:26:56;;;;;;;10.73;7.07;;;4.30;99.90;;;3.84;64.27;102470.91;4136642;28;20034;-73
2021/03/06 01:28:57;;;;;;;11.93;7.63;;;4.30;99.90;;;3.76;64.16;102460.81;4136578;28;20034;-73
2021/03/06 01:30:58;;;;;;;10.90;7.43;;;4.30;99.90;;;3.79;64.34;102471.09;4119449;28;20089;-73
2021/03/06 01:33:01;;;;;;;11.07;7.57;;;4.30;99.90;;;3.81;64.10;102473.66;4136677;28;20073;-73
2021/03/06 01:35:05;;;;;;;9.80;7.63;;;4.20;99.90;;;3.85;64.28;102476.03;4119068;28;20054;-74
2021/03/06 01:37:06;;;;;;;8.77;6.78;;;4.20;99.90;;;3.68;64.80;102449.03;4136548;28;20113;-73
2021/03/06 01:39:07;;;;;;;8.88;6.80;;;4.20;99.90;;;3.78;64.11;102458.13;4119095;28;20081;-73
2021/03/06 01:41:08;;;;;;;10.27;6.65;;;4.20;99.90;;;3.71;64.58;102452.34;4119272;28;20043;-73
2021/03/06 01:43:13;;;;;;;9.20;6.75;;;4.10;99.90;;;3.76;64.41;102463.41;4119167;28;20053;-73
2021/03/06 01:45:14;;;;;;;8.35;6.47;;;4.10;99.90;;;3.81;63.77;102458.84;4136236;28;20034;-73
2021/03/06 01:47:15;;;;;;;9.90;7.15;;;4.10;99.90;;;3.81;64.65;102471.06;4136393;28;20026;-73
2021/03/06 01:49:16;;;;;;;11.13;7.32;;;4.10;99.90;;;3.82;64.38;102472.75;4136340;28;20034;-73
2021/03/06 01:51:17;;;;;;;8.77;6.72;;;4.10;99.90;;;3.97;63.79;102473.81;4136262;28;20030;-73
2021/03/06 01:53:19;;;;;;;10.50;6.90;;;4.20;99.90;;;3.81;64.56;102478.88;4118925;28;20110;-73
2021/03/06 01:55:23;;;;;;;9.75;8.45;;;4.10;99.90;;;3.80;64.02;102483.25;4136004;28;20069;-73
2021/03/06 01:57:28;;;;;;;8.93;7.43;;;4.10;99.90;;;3.87;63.66;102479.44;4119070;28;20112;-73
2021/03/06 01:59:30;;;;;;;10.13;6.97;;;4.10;99.90;;;3.78;64.34;102485.09;4118966;28;20027;-73
2021/03/06 02:01:31;;;;;;;9.52;7.10;;;4.10;99.90;;;3.62;64.56;102468.44;4118779;28;20058;-73
2021/03/06 02:03:32;;;;;;;9.05;7.28;;;4.00;99.90;;;3.83;64.35;102471.81;4118739;28;20023;-73
2021/03/06 02:05:33;;;;;;;9.88;8.10;;;4.00;99.90;;;3.60;65.29;102469.41;4136149;28;20041;-73
2021/03/06 02:07:34;;;;;;;9.73;7.03;;;3.90;99.90;;;3.65;64.82;102462.22;4118770;28;20583;-73
2021/03/06 02:09:35;;;;;;;11.63;7.40;;;3.90;99.90;;;3.79;64.22;102467.69;4118403;28;20467;-73
2021/03/06 02:12:05;;;;;;;10.07;6.93;;;3.90;99.90;;;3.63;64.75;102470.13;4136002;28;20034;-73
2021/03/06 02:14:37;;;;;;;12.93;8.07;;;3.90;99.90;;;3.56;64.79;102473.91;4136047;28;20124;-73
2021/03/06 02:16:55;;;;;;;10.88;7.50;;;3.80;99.90;;;3.46;65.04;102470.03;4111424;28;20495;-73
2021/03/06 02:19:59;;;;;;;9.35;6.90;;;3.80;99.90;;;3.51;65.78;102464.59;4119281;28;20472;-73
2021/03/06 02:22:46;;;;;;;11.88;7.15;;;3.80;99.90;;;3.66;64.71;102464.78;4086206;29;20027;-73
2021/03/06 02:25:18;;;;;;;11.40;7.38;;;3.70;99.90;;;3.77;64.49;102456.44;4131462;28;20045;-73
2021/03/06 02:28:05;;;;;;;8.52;6.82;;;3.90;99.90;;;3.48;65.89;102472.56;4093868;28;20042;-73
2021/03/06 02:30:12;;;;;;;9.63;7.15;;;3.90;99.90;;;3.51;64.92;102470.69;4135802;28;20398;-73
2021/03/06 02:32:34;;;;;;;11.32;7.30;;;3.80;99.90;;;3.44;64.72;102463.19;4118556;28;20646;-73
2021/03/06 02:34:37;;;;;;;10.85;8.20;;;3.80;99.90;;;3.38;65.58;102460.84;4119388;28;20033;-73
2021/03/06 02:36:47;;;;;;;11.23;7.65;;;3.70;99.90;;;3.45;65.41;102470.94;4135488;28;20088;-73
2021/03/06 02:38:51;;;;;;;10.98;8.35;;;3.70;99.90;;;3.56;65.26;102460.03;4135566;28;20030;-73
2021/03/06 02:40:52;;;;;;;10.20;7.50;;;3.80;99.90;;;3.47;64.93;102450.84;4135813;28;20029;-73
2021/03/06 02:42:55;;;;;;;9.65;6.78;;;3.80;99.90;;;3.45;66.26;102467.50;4118437;28;20030;-73
2021/03/06 02:44:58;;;;;;;9.55;7.18;;;3.70;99.90;;;3.35;65.43;102452.25;4118510;28;20031;-73
2021/03/06 02:47:00;;;;;;;11.73;8.30;;;3.80;99.90;;;3.35;65.15;102447.03;4118403;28;20035;-73
2021/03/06 02:49:01;;;;;;;9.48;7.07;;;3.70;99.90;;;3.42;64.84;102446.75;4118477;28;20406;-73
2021/03/06 02:51:03;;;;;;;9.90;7.45;;;3.70;99.90;;;3.34;65.61;102467.97;4135646;28;20030;-73
2021/03/06 02:53:04;;;;;;;10.95;7.50;;;3.70;99.90;;;3.37;65.38;102459.16;4135655;28;20390;-73
2021/03/06 02:55:08;;;;;;;13.48;8.43;;;3.60;99.90;;;3.28;66.08;102468.25;4118107;28;20027;-73
2021/03/06 02:57:11;;;;;;;11.93;7.65;;;3.50;99.90;;;3.24;65.65;102464.91;4135487;28;20572;-73
2021/03/06 02:59:17;;;;;;;10.82;7.78;;;3.50;99.90;;;3.28;66.02;102463.03;4118415;28;20026;-73
2021/03/06 03:01:56;;;;;;;10.48;7.93;;;3.40;99.90;;;3.28;64.85;102450.84;4135362;28;20034;-73
2021/03/06 03:04:22;;;;;;;10.23;7.78;;;3.60;99.90;;;3.29;66.30;102451.66;4120862;28;20090;-73
2021/03/06 03:06:37;;;;;;;10.93;7.53;;;3.50;99.90;;;3.08;66.13;102440.41;4120319;28;20086;-73
2021/03/06 03:09:07;;;;;;;11.77;8.35;;;3.40;99.90;;;3.10;65.93;102453.41;4118287;28;20546;-73
2021/03/06 03:11:13;;;;;;;12.93;8.27;;;3.40;99.90;;;3.12;66.65;102455.03;4118047;28;20117;-73
2021/03/06 03:13:29;;;;;;;9.82;7.90;;;3.40;99.90;;;3.15;66.05;102446.22;4118821;28;20074;-73
2021/03/06 03:15:49;;;;;;;8.63;7.40;;;3.40;99.90;;;3.04;66.61;102459.72;4118543;28;20055;-73
2021/03/06 03:17:53;;;;;;;13.52;8.93;;;3.30;99.90;;;2.85;66.81;102440.56;4118633;28;20031;-73
2021/03/06 03:20:34;;;;;;;9.70;7.40;;;3.30;99.90;;;3.33;65.59;102461.91;4135457;28;20109;-73
2021/03/06 03:22:46;;;;;;;12.13;8.20;;;3.40;99.90;;;3.01;66.06;102448.59;4109905;28;20454;-73
2021/03/06 03:24:51;;;;;;;10.65;8.13;;;3.30;99.90;;;3.11;65.67;102461.13;4118677;28;20031;-73
2021/03/06 03:26:53;;;;;;;8.73;7.50;;;3.40;99.90;;;3.17;65.66;102460.03;4135425;28;20034;-73
2021/03/06 03:28:55;;;;;;;11.70;8.57;;;3.30;99.90;;;2.74;67.26;102458.41;4118102;28;20062;-73
2021/03/06 03:30:59;;;;;;;12.88;8.23;;;3.30;99.90;;;2.99;66.30;102456.44;4118279;28;20549;-73
2021/03/06 03:33:07;;;;;;;10.60;8.50;;;3.30;99.90;;;2.83;66.97;102441.56;4135381;28;20109;-73
2021/03/06 03:35:13;;;;;;;11.93;8.40;;;3.30;99.90;;;2.89;66.56;102454.31;4117860;28;20042;-73
2021/03/06 03:37:15;;;;;;;11.50;8.80;;;3.20;99.90;;;2.55;68.20;102434.88;4118979;28;20035;-73
2021/03/06 03:39:16;;;;;;;11.15;7.90;;;3.20;99.90;;;2.60;67.85;102437.28;4104621;29;20032;-73
2021/03/06 03:41:18;;;;;;;13.45;8.60;;;3.10;99.90;;;2.51;68.38;102442.91;4120982;28;20034;-73
2021/03/06 03:43:18;;;;;;;14.68;8.68;;;3.00;99.90;;;2.66;68.08;102437.88;4121045;28;20031;-73
2021/03/06 03:45:21;;;;;;;13.00;8.55;;;2.90;99.90;;;2.71;67.02;102435.09;4120912;28;20031;-73
2021/03/06 03:47:23;;;;;;;11.68;7.68;;;3.00;99.90;;;2.88;67.49;102448.25;4121167;28;20027;-73
2021/03/06 03:49:26;;;;;;;14.38;9.32;;;3.00;99.90;;;2.54;68.09;102440.16;4120927;28;20117;-73
2021/03/06 03:51:27;;;;;;;11.48;8.80;;;3.00;99.90;;;2.54;67.39;102416.72;4120841;28;20389;-73
2021/03/06 03:53:30;;;;;;;13.63;8.68;;;3.00;99.90;;;2.60;68.48;102434.69;4120763;28;20526;-73
2021/03/06 03:55:31;;;;;;;14.02;9.07;;;2.90;99.90;;;2.77;67.17;102442.66;4120515;28;20029;-73
2021/03/06 03:57:33;;;;;;;12.95;8.85;;;2.90;99.90;;;2.79;67.29;102443.44;4104715;29;20527;-73
2021/03/06 03:59:34;;;;;;;14.23;8.85;;;2.90;99.90;;;2.82;66.93;102440.69;4122064;28;20394;-73
2021/03/06 04:01:41;;;;;;;12.00;8.65;;;2.90;99.90;;;2.50;68.77;102425.56;4120587;28;20031;-73
2021/03/06 04:03:42;;;;;;;11.85;8.57;;;3.00;99.90;;;2.52;68.42;102429.81;4120897;28;20052;-73
2021/03/06 04:05:43;;;;;;;10.13;8.35;;;2.90;99.90;;;2.63;67.93;102445.81;4120647;28;20035;-73
2021/03/06 04:07:49;;;;;;;11.25;9.00;;;2.90;99.90;;;2.59;68.48;102440.81;4121723;28;20431;-73
2021/03/06 04:09:50;;;;;;;12.43;8.93;;;2.90;99.90;;;2.67;68.01;102441.34;4120537;28;20035;-72
2021/03/06 04:11:53;;;;;;;13.63;8.80;;;2.90;99.90;;;2.51;66.88;102422.06;4121792;28;20553;-72
2021/03/06 04:13:54;;;;;;;11.95;8.35;;;2.90;99.90;;;2.20;68.20;102420.72;4121723;28;20031;-73
2021/03/06 04:15:55;;;;;;;11.50;7.93;;;2.80;99.90;;;2.54;67.81;102438.38;4120371;28;20532;-73
2021/03/06 04:17:56;;;;;;;12.18;9.52;;;2.80;99.90;;;2.50;67.96;102425.56;4121930;28;20031;-73
2021/03/06 04:19:57;;;;;;;11.27;8.15;;;2.80;99.90;;;2.39;69.29;102441.63;4120502;28;20032;-73
2021/03/06 04:21:58;;;;;;;12.65;8.55;;;2.70;99.90;;;2.30;69.06;102423.75;4120349;28;20411;-73
2021/03/06 04:23:59;;;;;;;11.25;8.38;;;2.70;99.90;;;2.53;68.32;102434.09;4120036;28;20503;-73
2021/03/06 04:26:00;;;;;;;10.85;8.15;;;2.70;99.90;;;2.34;68.51;102421.88;4120259;28;20058;-73
2021/03/06 04:28:01;;;;;;;10.75;7.78;;;2.70;99.90;;;2.50;68.68;102434.22;4121623;28;20024;-73
2021/03/06 04:30:05;;;;;;;13.27;8.80;;;2.70;99.90;;;2.40;68.28;102435.50;4120403;28;20062;-73
2021/03/06 04:32:06;;;;;;;11.75;9.05;;;2.70;99.90;;;2.35;68.10;102432.25;4121434;28;20031;-73
2021/03/06 04:34:07;;;;;;;11.80;8.38;;;2.60;99.90;;;2.54;68.04;102445.38;4121457;28;20034;-73
2021/03/06 04:36:09;;;;;;;10.95;8.05;;;2.70;99.90;;;2.59;67.71;102435.59;4130049;28;20631;-73
2021/03/06 04:38:10;;;;;;;10.52;7.78;;;2.70;99.90;;;2.58;67.77;102437.34;4137483;28;20034;-73
2021/03/06 04:40:13;;;;;;;10.93;8.75;;;2.70;99.90;;;2.76;66.55;102443.56;4137173;28;20030;-73
2021/03/06 04:42:14;;;;;;;11.95;9.43;;;2.70;99.90;;;2.46;66.83;102448.28;4137551;28;20556;-73
2021/03/06 04:44:15;;;;;;;12.20;8.93;;;2.80;99.90;;;2.44;67.74;102452.72;4137552;28;20026;-73
2021/03/06 04:46:16;;;;;;;12.68;8.30;;;2.70;99.90;;;2.53;67.89;102452.34;4137374;28;20041;-73
2021/03/06 04:48:17;;;;;;;11.90;8.55;;;2.70;99.90;;;2.56;66.97;102452.22;4136626;28;20053;-73
2021/03/06 04:50:18;;;;;;;11.88;8.57;;;2.80;99.90;;;2.31;68.07;102435.88;4137067;28;20094;-73
2021/03/06 04:52:19;;;;;;;13.80;9.73;;;2.80;99.90;;;2.48;67.19;102454.25;4137267;28;20034;-73
2021/03/06 04:54:20;;;;;;;9.50;8.40;;;2.70;99.90;;;2.33;67.40;102460.09;4136928;28;20116;-73
2021/03/06 04:56:21;;;;;;;11.85;8.88;;;2.70;99.90;;;2.44;67.87;102452.72;4137118;28;20026;-73
2021/03/06 04:58:22;;;;;;;14.65;9.43;;;2.60;99.90;;;2.32;67.67;102453.22;4137327;28;20023;-73
2021/03/06 05:00:23;;;;;;;12.50;8.98;;;2.70;99.90;;;2.20;68.28;102454.56;4137209;28;20049;-73
2021/03/06 05:02:24;;;;;;;11.48;8.60;;;2.70;99.90;;;1.91;69.17;102446.19;4119613;28;20054;-72
2021/03/06 05:04:25;;;;;;;14.35;9.95;;;2.70;99.90;;;1.90;69.13;102440.13;4119746;28;20570;-73
2021/03/06 05:06:26;;;;;;;13.82;9.63;;;2.70;99.90;;;1.90;69.46;102444.47;4137234;28;20084;-73
2021/03/06 05:08:26;;;;;;;12.48;9.05;;;2.50;99.90;;;1.93;69.63;102442.63;4119745;28;20105;-73
2021/03/06 05:10:27;;;;;;;10.90;9.52;;;2.50;99.90;;;2.04;68.89;102457.78;4136809;28;20061;-73
2021/03/06 05:12:28;;;;;;;12.40;8.75;;;2.50;99.90;;;2.08;68.27;102448.97;4136936;28;20038;-73
2021/03/06 05:14:29;;;;;;;12.48;9.23;;;2.40;99.90;;;1.75;69.47;102432.91;4103670;28;20047;-73
2021/03/06 05:16:30;;;;;;;13.23;9.32;;;2.50;99.90;;;1.88;69.37;102436.72;4126000;28;20031;-73
2021/03/06 05:18:32;;;;;;;13.63;9.07;;;2.40;99.90;;;1.96;69.11;102450.31;4119654;28;20577;-73
2021/03/06 05:20:33;;;;;;;10.52;8.43;;;2.40;99.90;;;2.05;69.59;102462.97;4136758;28;20065;-73
2021/03/06 05:22:34;;;;;;;13.43;8.23;;;2.40;99.90;;;2.08;68.90;102468.03;4136681;28;20022;-73
2021/03/06 05:24:34;;;;;;;12.80;9.00;;;2.40;99.90;;;2.08;69.50;102469.78;4136673;28;20054;-73
2021/03/06 05:26:35;;;;;;;12.38;8.73;;;2.40;99.90;;;2.03;70.28;102458.72;4136785;28;20030;-73
2021/03/06 05:28:36;;;;;;;13.07;9.05;;;2.50;99.90;;;2.04;69.69;102463.00;4136700;28;20030;-73
2021/03/06 05:30:37;;;;;;;14.63;9.13;;;2.40;99.90;;;2.08;69.27;102462.84;4136758;28;20035;-73
2021/03/06 05:32:38;;;;;;;11.57;9.15;;;2.50;99.90;;;2.09;69.25;102474.91;4136614;28;20061;-73
2021/03/06 05:34:39;;;;;;;13.13;9.65;;;2.40;99.90;;;2.03;68.54;102474.34;4136560;28;20043;-73
2021/03/06 05:36:40;;;;;;;13.18;9.20;;;2.40;99.90;;;1.77;69.28;102467.50;4119086;28;20078;-73
2021/03/06 05:38:41;;;;;;;13.40;9.93;;;2.30;99.90;;;1.93;69.44;102473.84;4136338;28;20022;-73
2021/03/06 05:40:45;;;;;;;9.90;8.27;;;2.30;99.90;;;1.86;69.49;102467.16;4136634;28;20058;-73
2021/03/06 05:42:47;;;;;;;13.05;9.02;;;2.30;99.90;;;1.88;68.58;102447.13;4119283;28;20023;-73
2021/03/06 05:44:48;;;;;;;12.02;8.88;;;2.30;99.90;;;2.09;68.77;102480.13;4119416;28;20041;-73
2021/03/06 05:46:50;;;;;;;12.43;8.88;;;2.40;99.90;;;2.17;68.45;102480.69;4119117;28;20069;-73
2021/03/06 05:48:53;;;;;;;11.93;8.90;;;2.40;99.90;;;1.91;69.17;102487.81;4135059;28;20097;-73
2021/03/06 05:50:56;;;;;;;13.10;9.55;;;2.40;99.90;;;1.90;70.08;102481.75;4118952;28;20109;-73
2021/03/06 05:52:58;;;;;;;13.85;9.55;;;2.40;99.90;;;2.00;69.45;102474.47;4119101;28;20061;-73
2021/03/06 05:55:01;;;;;;;12.25;8.73;;;2.30;99.90;;;2.03;69.36;102482.97;4118462;28;20103;-73
2021/03/06 05:57:04;;;;;;;14.77;9.05;;;2.30;99.90;;;2.02;68.76;102472.63;4119009;28;20023;-73
2021/03/06 05:59:11;;;;;;;13.00;10.10;;;2.20;99.90;;;1.92;68.56;102468.69;4119038;28;20395;-73
2021/03/06 06:01:14;;;;;;;11.18;8.75;;;2.30;99.90;;;1.96;68.15;102475.47;4136006;28;20037;-73
2021/03/06 06:03:17;;;;;;;11.63;9.53;;;2.30;99.90;;;2.02;68.52;102481.28;4136360;28;20026;-73
2021/03/06 06:05:18;;;;;;;13.50;9.88;;;2.30;99.90;;;2.12;67.93;102495.63;4118803;28;20117;-73
2021/03/06 06:07:21;;;;;;;11.55;9.15;;;2.30;99.90;;;2.12;68.20;102493.03;4136149;28;20030;-73
2021/03/06 06:09:22;;;;;;;12.57;9.32;;;2.30;99.90;;;1.87;68.96;102491.44;4118775;28;20628;-73
2021/03/06 06:11:23;;;;;;;12.70;9.02;;;2.30;99.90;;;1.63;69.60;102483.63;4119049;28;20043;-73
2021/03/06 06:13:23;;;;;;;11.50;9.73;;;2.20;99.90;;;1.59;69.91;102476.00;4119039;28;20041;-73
2021/03/06 06:15:25;;;;;;;14.65;9.30;;;2.10;99.90;;;1.80;69.83;102483.00;4136011;28;20033;-73
2021/03/06 06:17:26;;;;;;;14.00;9.43;;;2.00;99.90;;;1.55;69.09;102490.03;4118827;28;20027;-73
2021/03/06 06:19:30;;;;;;;11.13;8.48;;;2.10;99.90;;;1.58;70.79;102502.94;4118449;28;20035;-73
2021/03/06 06:21:49;;;;;;;15.23;9.10;;;1.90;99.90;;;1.40;70.42;102490.56;4119115;28;20027;-73
2021/03/06 06:24:22;;;;;;;11.50;8.00;;;1.90;99.90;;;1.44;71.82;102498.19;4135812;28;20042;-73
2021/03/06 06:26:23;;;;;;;13.18;9.38;;;1.80;99.90;;;1.67;69.99;102505.19;4103325;28;20034;-73
2021/03/06 06:28:24;;;;;;;15.82;9.60;;;1.90;99.90;;;1.66;70.67;102493.06;4118655;28;20035;-73
2021/03/06 06:30:25;;;;;;;12.27;9.07;;;1.90;99.90;;;1.64;69.54;102502.69;4135958;28;20029;-73
2021/03/06 06:32:45;;;;;;;13.20;9.75;;;1.90;99.90;;;1.80;69.36;102502.97;4135770;28;20038;-73
2021/03/06 06:35:08;;;;;;;11.88;9.05;;;1.90;99.90;;;1.61;70.78;102490.63;4135793;28;20491;-73
2021/03/06 06:37:16;;;;;;;10.88;9.15;;;1.90;99.90;;;1.35;70.76;102472.53;4116765;28;20090;-74
2021/03/06 06:39:29;;;;;;;13.27;9.70;;;1.90;99.90;;;1.38;71.43;102492.38;4135275;28;20112;-74
2021/03/06 06:42:01;;;;;;;12.70;10.05;;;1.90;99.90;;;1.41;70.34;102493.09;4135696;28;20027;-74
2021/03/06 06:44:08;;;;;;;14.00;10.45;;;1.90;99.90;;;1.47;70.53;102485.09;4135610;28;20489;-74
2021/03/06 06:46:26;;;;;;;14.70;10.32;;;2.00;99.90;;;1.54;70.26;102490.91;4102118;29;20039;-74
2021/03/06 06:48:27;;;;;;;14.10;10.35;;;1.90;99.90;;;1.66;69.20;102485.28;4120793;28;20039;-74
2021/03/06 06:50:33;;;;;;;12.38;9.65;;;1.90;99.90;;;1.63;69.98;102472.38;4118390;28;20081;-74
2021/03/06 06:52:43;;;;;;;16.67;10.57;;;1.90;99.90;;;1.82;70.31;102483.81;4118504;28;20034;-74
2021/03/06 06:54:58;;;;;;;13.30;10.93;;;1.90;99.90;;;1.92;68.62;102482.53;4135267;28;20026;-74
2021/03/06 06:57:10;;;;;;;12.43;10.38;;;2.00;99.90;;;1.83;69.79;102477.69;4135299;28;20089;-73
2021/03/06 06:59:10;;;;;;;12.63;10.25;;;2.00;99.90;;;1.71;68.92;102480.75;4132285;28;20882;-73
2021/03/06 07:01:35;;;;;;;13.70;10.40;;;2.10;99.90;;;1.50;69.86;102481.53;4125718;28;20041;-73
2021/03/06 07:03:36;;;;;;;13.02;9.80;;;2.10;99.90;;;1.67;70.02;102487.81;4134416;28;20026;-72
2021/03/06 07:05:40;;;;;;;13.65;10.10;;;2.00;99.90;;;1.88;69.46;102473.16;4129773;28;20064;-73
2021/03/06 07:07:42;;;;;;;14.68;10.80;;;2.10;99.90;;;1.88;68.43;102477.53;4134572;28;20027;-73
2021/03/06 07:10:01;;;;;;;14.00;9.88;;;2.20;99.90;;;1.88;69.39;102477.53;4134060;28;20062;-73
2021/03/06 07:12:16;;;;;;;12.70;10.45;;;2.30;99.90;;;1.87;68.41;102476.66;4135610;28;20031;-73
2021/03/06 07:14:38;;;;;;;12.82;10.23;;;2.20;99.90;;;2.02;67.69;102470.03;4128768;28;20038;-73
2021/03/06 07:16:58;;;;;;;12.40;9.63;;;2.30;99.90;;;2.08;68.56;102475.00;4128212;28;20453;-73
2021/03/06 07:19:00;;;;;;;14.85;10.45;;;2.40;99.90;;;1.86;68.75;102482.78;4138200;28;20072;-73
2021/03/06 07:21:01;;;;;;;13.23;10.38;;;2.50;99.90;;;1.96;67.85;102470.25;4137509;28;20022;-73
2021/03/06 07:23:13;;;;;;;15.95;12.48;;;2.40;99.90;;;1.93;68.44;102481.66;4138052;28;20053;-72
2021/03/06 07:25:14;;;;;;;15.23;10.82;;;2.40;99.90;;;1.86;69.35;102480.16;4137901;28;20034;-72
2021/03/06 07:27:15;;;;;;;13.00;10.57;;;2.40;99.90;;;1.92;69.78;102482.53;4120677;28;20067;-73
2021/03/06 07:29:16;;;;;;;14.50;10.18;;;2.40;99.90;;;2.20;68.77;102483.19;4137888;28;20026;-74
2021/03/06 07:31:18;;;;;;;15.80;10.82;;;2.40;99.90;;;2.20;68.58;102482.34;4137813;28;20041;-73
2021/03/06 07:33:21;;;;;;;14.38;10.55;;;2.50;99.90;;;2.33;67.87;102490.50;4120575;28;20070;-73
2021/03/06 07:35:24;;;;;;;12.65;9.55;;;2.60;99.90;;;2.45;67.02;102480.44;4137479;28;20076;-73
2021/03/06 07:37:25;;;;;;;19.77;12.48;;;2.70;99.90;;;2.31;67.39;102474.94;4120396;28;20029;-73
2021/03/06 07:39:30;;;;;;;13.90;11.15;;;2.70;99.90;;;2.17;67.07;102487.66;4104221;29;20031;-74
2021/03/06 07:41:39;;;;;;;17.38;10.93;;;2.80;99.90;;;2.16;68.43;102494.63;4131542;28;20030;-73
2021/03/06 07:43:41;;;;;;;16.15;11.43;;;2.70;99.90;;;2.43;67.19;102494.44;4137515;28;20018;-73
2021/03/06 07:45:47;;;;;;;16.15;11.35;;;2.80;99.90;;;2.55;66.95;102496.53;4120275;28;20038;-73
2021/03/06 07:47:54;;;;;;;14.95;11.88;;;2.90;99.90;;;2.40;67.46;102498.00;4137553;28;20023;-73
2021/03/06 07:50:00;;;;;;;16.05;11.15;;;3.00;99.90;;;2.56;66.69;102496.50;4120062;28;20394;-74
2021/03/06 07:52:01;;;;;;;16.55;11.38;;;3.10;99.90;;;2.55;67.60;102501.75;4120326;28;20593;-73
2021/03/06 07:54:04;;;;;;;15.65;10.77;;;3.00;99.90;;;2.61;66.36;102497.16;4120222;28;20074;-73
2021/03/06 07:56:06;;;;;;;13.45;10.68;;;3.20;99.90;;;2.71;66.14;102498.47;4120505;28;20081;-73
2021/03/06 07:58:12;;;;;;;15.73;11.95;;;3.10;99.90;;;2.60;66.90;102499.81;4120195;28;20027;-73
2021/03/06 08:00:14;;;;;;;14.40;10.65;;;3.20;99.90;;;2.68;66.77;102493.41;4120163;28;20027;-73
2021/03/06 08:02:37;;;;;;;17.05;11.40;;;3.20;99.90;;;2.80;65.70;102494.66;4128952;28;20390;-73
2021/03/06 08:04:39;;;;;;;16.13;12.02;;;3.30;99.90;;;2.68;67.22;102497.75;4120464;28;20039;-73
2021/03/06 08:06:40;;;;;;;14.75;11.55;;;3.40;99.90;;;2.67;66.74;102489.09;4120509;28;20037;-73
2021/03/06 08:08:41;;;;;;;15.20;11.30;;;3.40;99.90;;;2.84;66.45;102501.41;4120342;28;20026;-73
2021/03/06 08:11:12;;;;;;;16.25;11.70;;;3.40;99.90;;;2.91;65.94;102512.44;4137220;28;20030;-73
2021/03/06 08:13:36;;;;;;;16.90;10.82;;;3.50;99.90;;;2.70;67.04;102480.28;4137513;28;20038;-73
2021/03/06 08:15:37;;;;;;;15.98;11.05;;;3.50;99.90;;;2.95;66.59;102508.78;4137337;28;20062;-73
2021/03/06 08:17:38;;;;;;;14.13;10.80;;;3.50;99.90;;;2.91;66.45;102495.03;4120100;28;20030;-73
2021/03/06 08:19:43;;;;;;;16.33;11.50;;;3.60;99.90;;;3.03;65.68;102497.13;4137447;28;20035;-73
2021/03/06 08:21:56;;;;;;;14.65;10.60;;;3.70;99.90;;;3.21;65.06;102514.59;4120100;28;20515;-72
2021/03/06 08:24:15;;;;;;;14.88;11.27;;;3.80;99.90;;;3.08;65.41;102513.41;4129044;28;20034;-71
2021/03/06 08:26:19;;;;;;;16.02;12.15;;;3.80;99.90;;;3.15;66.32;102519.22;4123570;28;20371;-71
2021/03/06 08:28:27;;;;;;;17.25;10.45;;;3.90;99.90;;;3.12;65.11;102509.78;4137379;28;20034;-72
2021/03/06 08:30:28;;;;;;;14.75;11.02;;;3.90;99.90;;;3.29;64.36;102512.50;4130516;28;20026;-71
2021/03/06 08:32:36;;;;;;;20.33;12.15;;;4.20;99.90;;;3.20;65.78;102509.44;4136668;28;20453;-71
2021/03/06 08:34:46;;;;;;;18.88;11.48;;;4.00;99.90;;;3.04;65.46;102496.22;4122034;28;20082;-71
2021/03/06 08:36:47;;;;;;;16.67;12.60;;;4.10;99.90;;;3.31;65.56;102520.28;4132216;28;20580;-71
2021/03/06 08:38:48;;;;;;;14.52;10.80;;;4.10;99.90;;;3.24;65.75;102514.47;4136672;28;20031;-71
2021/03/06 08:40:53;;;;;;;15.25;11.20;;;4.20;99.90;;;3.24;65.14;102509.25;4103531;29;20039;-73
2021/03/06 08:42:55;;;;;;;18.27;11.45;;;4.30;99.90;;;3.29;65.35;102489.03;4117863;28;20038;-71
2021/03/06 08:45:01;;;;;;;17.25;11.75;;;4.30;99.90;;;3.24;65.54;102511.88;4131965;28;20031;-71